sensor_id;sensor_type;location;lat;lon;timestamp;temperature;humidity
30250;DHT22;17064;47.974;13.826;2023-10-08T00:02:17;17.50;63.70
30250;DHT22;17064;47.974;13.826;2023-10-08T00:07:22;17.80;60.50
30250;DHT22;17064;47.974;13.826;2023-10-08T00:12:26;17.90;63.20
30250;DHT22;17064;47.974;13.826;2023-10-08T00:17:29;17.70;61.20
30250;DHT22;17064;47.974;13.826;2023-10-08T00:22:32;17.50;62.20
30250;DHT22;17064;47.974;13.826;2023-10-08T00:27:36;17.30;63.40
30250;DHT22;17064;47.974;13.826;2023-10-08T00:32:39;17.20;64.30
30250;DHT22;17064;47.974;13.826;2023-10-08T00:37:40;17.10;64.40
30250;DHT22;17064;47.974;13.826;2023-10-08T00:42:41;17.10;65.10
30250;DHT22;17064;47.974;13.826;2023-10-08T00:47:46;17.20;64.60
30250;DHT22;17064;47.974;13.826;2023-10-08T00:52:49;17.30;63.50
30250;DHT22;17064;47.974;13.826;2023-10-08T00:58:09;17.30;63.50
30250;DHT22;17064;47.974;13.826;2023-10-08T01:03:12;17.70;62.20
30250;DHT22;17064;47.974;13.826;2023-10-08T01:08:16;17.80;62.60
30250;DHT22;17064;47.974;13.826;2023-10-08T01:13:23;17.90;62.90
30250;DHT22;17064;47.974;13.826;2023-10-08T01:18:27;18.00;59.90
30250;DHT22;17064;47.974;13.826;2023-10-08T01:23:33;18.00;60.60
30250;DHT22;17064;47.974;13.826;2023-10-08T01:28:33;18.10;59.80
30250;DHT22;17064;47.974;13.826;2023-10-08T01:33:35;18.10;59.40
30250;DHT22;17064;47.974;13.826;2023-10-08T01:38:39;18.20;57.60
30250;DHT22;17064;47.974;13.826;2023-10-08T01:43:42;18.30;59.20
30250;DHT22;17064;47.974;13.826;2023-10-08T01:48:42;18.30;59.60
30250;DHT22;17064;47.974;13.826;2023-10-08T01:53:45;18.20;60.40
30250;DHT22;17064;47.974;13.826;2023-10-08T01:58:45;18.20;60.80
30250;DHT22;17064;47.974;13.826;2023-10-08T02:03:46;18.10;62.00
30250;DHT22;17064;47.974;13.826;2023-10-08T02:08:47;18.10;62.10
30250;DHT22;17064;47.974;13.826;2023-10-08T02:13:48;18.10;61.60
30250;DHT22;17064;47.974;13.826;2023-10-08T02:18:49;18.10;61.60
30250;DHT22;17064;47.974;13.826;2023-10-08T02:23:51;18.20;61.70
30250;DHT22;17064;47.974;13.826;2023-10-08T02:28:52;18.20;61.40
30250;DHT22;17064;47.974;13.826;2023-10-08T02:33:54;18.10;62.30
30250;DHT22;17064;47.974;13.826;2023-10-08T02:38:55;18.10;62.60
30250;DHT22;17064;47.974;13.826;2023-10-08T02:43:55;18.10;62.80
30250;DHT22;17064;47.974;13.826;2023-10-08T02:48:59;18.10;63.30
30250;DHT22;17064;47.974;13.826;2023-10-08T02:54:04;18.10;63.30
30250;DHT22;17064;47.974;13.826;2023-10-08T02:59:06;18.10;63.90
30250;DHT22;17064;47.974;13.826;2023-10-08T03:04:10;18.00;64.10
30250;DHT22;17064;47.974;13.826;2023-10-08T03:09:20;18.10;64.40
30250;DHT22;17064;47.974;13.826;2023-10-08T03:14:24;18.10;64.40
30250;DHT22;17064;47.974;13.826;2023-10-08T03:19:26;18.10;64.70
30250;DHT22;17064;47.974;13.826;2023-10-08T03:24:27;17.90;65.70
30250;DHT22;17064;47.974;13.826;2023-10-08T03:29:34;17.80;66.50
30250;DHT22;17064;47.974;13.826;2023-10-08T03:34:49;17.70;66.70
30250;DHT22;17064;47.974;13.826;2023-10-08T03:39:50;17.70;67.30
30250;DHT22;17064;47.974;13.826;2023-10-08T03:45:20;17.60;68.10
30250;DHT22;17064;47.974;13.826;2023-10-08T03:50:39;17.50;68.30
30250;DHT22;17064;47.974;13.826;2023-10-08T03:55:43;17.50;68.40
30250;DHT22;17064;47.974;13.826;2023-10-08T04:00:44;17.50;69.00
30250;DHT22;17064;47.974;13.826;2023-10-08T04:05:46;17.50;69.10
30250;DHT22;17064;47.974;13.826;2023-10-08T04:11:13;17.50;68.90
30250;DHT22;17064;47.974;13.826;2023-10-08T04:16:33;17.60;67.70
30250;DHT22;17064;47.974;13.826;2023-10-08T04:21:38;17.70;66.80
30250;DHT22;17064;47.974;13.826;2023-10-08T04:26:43;17.70;67.00
30250;DHT22;17064;47.974;13.826;2023-10-08T04:31:44;17.80;66.50
30250;DHT22;17064;47.974;13.826;2023-10-08T04:36:47;17.70;67.00
30250;DHT22;17064;47.974;13.826;2023-10-08T04:41:54;17.70;66.60
30250;DHT22;17064;47.974;13.826;2023-10-08T04:46:58;17.70;66.00
30250;DHT22;17064;47.974;13.826;2023-10-08T04:52:06;17.70;65.40
30250;DHT22;17064;47.974;13.826;2023-10-08T04:57:14;17.70;64.90
30250;DHT22;17064;47.974;13.826;2023-10-08T05:02:18;17.70;64.70
30250;DHT22;17064;47.974;13.826;2023-10-08T05:07:35;17.80;64.20
30250;DHT22;17064;47.974;13.826;2023-10-08T05:12:47;17.70;64.80
30250;DHT22;17064;47.974;13.826;2023-10-08T05:18:01;17.70;63.50
30250;DHT22;17064;47.974;13.826;2023-10-08T05:23:24;17.80;62.60
30250;DHT22;17064;47.974;13.826;2023-10-08T05:28:25;17.70;63.40
30250;DHT22;17064;47.974;13.826;2023-10-08T05:33:26;17.70;63.60
30250;DHT22;17064;47.974;13.826;2023-10-08T05:38:38;17.70;63.50
30250;DHT22;17064;47.974;13.826;2023-10-08T05:43:49;17.70;63.20
30250;DHT22;17064;47.974;13.826;2023-10-08T05:49:00;17.60;63.90
30250;DHT22;17064;47.974;13.826;2023-10-08T05:54:04;17.60;63.90
30250;DHT22;17064;47.974;13.826;2023-10-08T05:59:25;17.60;63.90
30250;DHT22;17064;47.974;13.826;2023-10-08T06:04:31;17.50;64.70
30250;DHT22;17064;47.974;13.826;2023-10-08T06:09:52;17.50;64.30
30250;DHT22;17064;47.974;13.826;2023-10-08T06:15:03;17.60;64.20
30250;DHT22;17064;47.974;13.826;2023-10-08T06:20:12;17.70;64.40
30250;DHT22;17064;47.974;13.826;2023-10-08T06:25:17;17.70;63.60
30250;DHT22;17064;47.974;13.826;2023-10-08T06:30:18;17.80;64.80
30250;DHT22;17064;47.974;13.826;2023-10-08T06:35:19;17.80;63.60
30250;DHT22;17064;47.974;13.826;2023-10-08T06:40:25;17.80;64.50
30250;DHT22;17064;47.974;13.826;2023-10-08T06:45:44;17.80;64.20
30250;DHT22;17064;47.974;13.826;2023-10-08T06:50:46;17.80;64.70
30250;DHT22;17064;47.974;13.826;2023-10-08T06:55:46;17.90;64.70
30250;DHT22;17064;47.974;13.826;2023-10-08T07:00:56;17.90;64.80
30250;DHT22;17064;47.974;13.826;2023-10-08T07:05:59;17.90;65.10
30250;DHT22;17064;47.974;13.826;2023-10-08T07:11:02;18.00;65.10
30250;DHT22;17064;47.974;13.826;2023-10-08T07:16:07;18.00;65.30
30250;DHT22;17064;47.974;13.826;2023-10-08T07:21:11;18.00;65.50
30250;DHT22;17064;47.974;13.826;2023-10-08T07:26:13;18.00;65.70
30250;DHT22;17064;47.974;13.826;2023-10-08T07:31:23;18.00;66.90
30250;DHT22;17064;47.974;13.826;2023-10-08T07:36:27;18.00;66.70
30250;DHT22;17064;47.974;13.826;2023-10-08T07:41:31;18.00;66.70
30250;DHT22;17064;47.974;13.826;2023-10-08T07:46:32;18.10;67.90
30250;DHT22;17064;47.974;13.826;2023-10-08T07:51:33;18.20;68.30
30250;DHT22;17064;47.974;13.826;2023-10-08T07:56:34;18.20;68.80
30250;DHT22;17064;47.974;13.826;2023-10-08T08:01:37;18.30;69.40
30250;DHT22;17064;47.974;13.826;2023-10-08T08:06:38;18.30;69.50
30250;DHT22;17064;47.974;13.826;2023-10-08T08:11:39;18.30;70.60
30250;DHT22;17064;47.974;13.826;2023-10-08T08:16:39;18.40;70.10
30250;DHT22;17064;47.974;13.826;2023-10-08T08:21:40;18.50;70.10
30250;DHT22;17064;47.974;13.826;2023-10-08T08:26:45;18.60;70.90
30250;DHT22;17064;47.974;13.826;2023-10-08T08:32:01;18.60;71.10
30250;DHT22;17064;47.974;13.826;2023-10-08T08:37:04;18.60;72.50
30250;DHT22;17064;47.974;13.826;2023-10-08T08:42:05;18.60;74.10
30250;DHT22;17064;47.974;13.826;2023-10-08T08:47:06;18.60;74.50
30250;DHT22;17064;47.974;13.826;2023-10-08T08:52:08;18.60;74.00
30250;DHT22;17064;47.974;13.826;2023-10-08T08:57:10;18.60;73.00
30250;DHT22;17064;47.974;13.826;2023-10-08T09:02:15;18.60;73.00
30250;DHT22;17064;47.974;13.826;2023-10-08T09:07:25;18.60;73.50
30250;DHT22;17064;47.974;13.826;2023-10-08T09:12:26;18.50;72.80
30250;DHT22;17064;47.974;13.826;2023-10-08T09:17:27;18.60;72.70
30250;DHT22;17064;47.974;13.826;2023-10-08T09:22:28;18.70;73.20
30250;DHT22;17064;47.974;13.826;2023-10-08T09:27:29;18.70;74.00
30250;DHT22;17064;47.974;13.826;2023-10-08T09:32:31;18.90;74.10
30250;DHT22;17064;47.974;13.826;2023-10-08T09:37:34;19.10;73.40
30250;DHT22;17064;47.974;13.826;2023-10-08T09:42:36;19.20;74.60
30250;DHT22;17064;47.974;13.826;2023-10-08T09:47:40;19.20;72.90
30250;DHT22;17064;47.974;13.826;2023-10-08T09:53:00;19.10;73.70
30250;DHT22;17064;47.974;13.826;2023-10-08T09:58:04;19.00;76.30
30250;DHT22;17064;47.974;13.826;2023-10-08T10:03:06;18.70;74.90
30250;DHT22;17064;47.974;13.826;2023-10-08T10:08:08;18.60;79.80
30250;DHT22;17064;47.974;13.826;2023-10-08T10:13:11;18.40;86.60
30250;DHT22;17064;47.974;13.826;2023-10-08T10:18:15;18.30;89.50
30250;DHT22;17064;47.974;13.826;2023-10-08T10:23:39;18.20;89.50
30250;DHT22;17064;47.974;13.826;2023-10-08T10:28:40;18.20;87.30
30250;DHT22;17064;47.974;13.826;2023-10-08T10:33:41;18.20;88.30
30250;DHT22;17064;47.974;13.826;2023-10-08T10:38:42;18.20;87.80
30250;DHT22;17064;47.974;13.826;2023-10-08T10:43:43;18.10;87.10
30250;DHT22;17064;47.974;13.826;2023-10-08T10:48:53;18.00;88.20
30250;DHT22;17064;47.974;13.826;2023-10-08T10:54:26;17.90;88.20
30250;DHT22;17064;47.974;13.826;2023-10-08T10:59:36;17.80;90.00
30250;DHT22;17064;47.974;13.826;2023-10-08T11:04:39;17.70;90.20
30250;DHT22;17064;47.974;13.826;2023-10-08T11:09:48;17.60;90.70
30250;DHT22;17064;47.974;13.826;2023-10-08T11:14:49;17.60;90.20
30250;DHT22;17064;47.974;13.826;2023-10-08T11:19:52;17.60;90.10
30250;DHT22;17064;47.974;13.826;2023-10-08T11:24:54;17.60;88.70
30250;DHT22;17064;47.974;13.826;2023-10-08T11:29:56;17.60;87.20
30250;DHT22;17064;47.974;13.826;2023-10-08T11:35:01;17.70;85.80
30250;DHT22;17064;47.974;13.826;2023-10-08T11:40:22;17.70;86.10
30250;DHT22;17064;47.974;13.826;2023-10-08T11:45:29;17.80;84.80
30250;DHT22;17064;47.974;13.826;2023-10-08T11:50:39;17.80;84.00
30250;DHT22;17064;47.974;13.826;2023-10-08T11:55:41;17.90;84.00
30250;DHT22;17064;47.974;13.826;2023-10-08T12:00:44;18.00;83.80
30250;DHT22;17064;47.974;13.826;2023-10-08T12:05:45;18.00;83.70
30250;DHT22;17064;47.974;13.826;2023-10-08T12:10:49;18.20;83.70
30250;DHT22;17064;47.974;13.826;2023-10-08T12:15:54;18.20;85.00
30250;DHT22;17064;47.974;13.826;2023-10-08T12:21:06;18.10;85.50
30250;DHT22;17064;47.974;13.826;2023-10-08T12:26:11;18.20;84.00
30250;DHT22;17064;47.974;13.826;2023-10-08T12:31:17;18.10;84.10
30250;DHT22;17064;47.974;13.826;2023-10-08T12:36:23;18.10;83.30
30250;DHT22;17064;47.974;13.826;2023-10-08T12:41:25;18.00;84.30
30250;DHT22;17064;47.974;13.826;2023-10-08T12:46:28;18.00;84.80
30250;DHT22;17064;47.974;13.826;2023-10-08T12:51:31;18.00;85.80
30250;DHT22;17064;47.974;13.826;2023-10-08T12:56:34;18.20;86.20
30250;DHT22;17064;47.974;13.826;2023-10-08T13:01:49;18.30;84.70
30250;DHT22;17064;47.974;13.826;2023-10-08T13:06:58;18.40;83.10
30250;DHT22;17064;47.974;13.826;2023-10-08T13:12:02;18.30;84.10
30250;DHT22;17064;47.974;13.826;2023-10-08T13:17:03;18.20;86.10
30250;DHT22;17064;47.974;13.826;2023-10-08T13:22:04;18.10;86.20
30250;DHT22;17064;47.974;13.826;2023-10-08T13:27:07;18.20;85.10
30250;DHT22;17064;47.974;13.826;2023-10-08T13:32:09;18.20;84.70
30250;DHT22;17064;47.974;13.826;2023-10-08T13:37:18;18.20;86.70
30250;DHT22;17064;47.974;13.826;2023-10-08T13:42:19;18.20;86.80
30250;DHT22;17064;47.974;13.826;2023-10-08T13:47:21;18.30;85.80
30250;DHT22;17064;47.974;13.826;2023-10-08T13:52:26;18.20;87.40
30250;DHT22;17064;47.974;13.826;2023-10-08T13:57:27;18.20;86.40
30250;DHT22;17064;47.974;13.826;2023-10-08T14:02:29;18.00;88.30
30250;DHT22;17064;47.974;13.826;2023-10-08T14:07:31;17.90;89.40
30250;DHT22;17064;47.974;13.826;2023-10-08T14:12:32;17.70;90.20
30250;DHT22;17064;47.974;13.826;2023-10-08T14:17:35;17.70;90.70
30250;DHT22;17064;47.974;13.826;2023-10-08T14:22:43;17.70;91.10
30250;DHT22;17064;47.974;13.826;2023-10-08T14:27:45;17.70;91.20
30250;DHT22;17064;47.974;13.826;2023-10-08T14:32:52;17.60;91.70
30250;DHT22;17064;47.974;13.826;2023-10-08T14:37:57;17.60;91.90
30250;DHT22;17064;47.974;13.826;2023-10-08T14:43:18;17.60;92.20
30250;DHT22;17064;47.974;13.826;2023-10-08T14:48:23;17.60;92.70
30250;DHT22;17064;47.974;13.826;2023-10-08T14:53:25;17.60;93.00
30250;DHT22;17064;47.974;13.826;2023-10-08T14:58:30;17.50;93.00
30250;DHT22;17064;47.974;13.826;2023-10-08T15:03:32;17.50;93.20
30250;DHT22;17064;47.974;13.826;2023-10-08T15:08:37;17.40;93.50
30250;DHT22;17064;47.974;13.826;2023-10-08T15:13:38;17.30;93.70
30250;DHT22;17064;47.974;13.826;2023-10-08T15:18:46;17.20;94.30
30250;DHT22;17064;47.974;13.826;2023-10-08T15:23:47;17.20;94.10
30250;DHT22;17064;47.974;13.826;2023-10-08T15:28:50;17.20;94.40
30250;DHT22;17064;47.974;13.826;2023-10-08T15:33:51;17.10;94.70
30250;DHT22;17064;47.974;13.826;2023-10-08T15:38:52;17.10;94.90
30250;DHT22;17064;47.974;13.826;2023-10-08T15:43:53;17.10;95.10
30250;DHT22;17064;47.974;13.826;2023-10-08T15:49:17;17.00;95.70
30250;DHT22;17064;47.974;13.826;2023-10-08T15:54:21;16.90;95.40
30250;DHT22;17064;47.974;13.826;2023-10-08T15:59:23;16.90;96.10
30250;DHT22;17064;47.974;13.826;2023-10-08T16:04:24;16.80;96.40
30250;DHT22;17064;47.974;13.826;2023-10-08T16:09:28;16.70;96.60
30250;DHT22;17064;47.974;13.826;2023-10-08T16:14:29;16.60;96.50
30250;DHT22;17064;47.974;13.826;2023-10-08T16:19:31;16.50;96.90
30250;DHT22;17064;47.974;13.826;2023-10-08T16:24:33;16.50;97.20
30250;DHT22;17064;47.974;13.826;2023-10-08T16:29:35;16.40;97.50
30250;DHT22;17064;47.974;13.826;2023-10-08T16:34:37;16.40;97.90
30250;DHT22;17064;47.974;13.826;2023-10-08T16:39:38;16.40;98.20
30250;DHT22;17064;47.974;13.826;2023-10-08T16:44:39;16.30;98.60
30250;DHT22;17064;47.974;13.826;2023-10-08T16:49:40;16.20;99.00
30250;DHT22;17064;47.974;13.826;2023-10-08T16:54:41;16.20;99.70
30250;DHT22;17064;47.974;13.826;2023-10-08T16:59:43;16.10;99.90
30250;DHT22;17064;47.974;13.826;2023-10-08T17:04:45;16.00;99.90
30250;DHT22;17064;47.974;13.826;2023-10-08T17:09:46;16.00;99.90
30250;DHT22;17064;47.974;13.826;2023-10-08T17:14:47;16.00;99.90
30250;DHT22;17064;47.974;13.826;2023-10-08T17:19:49;16.10;99.90
30250;DHT22;17064;47.974;13.826;2023-10-08T17:24:51;16.00;99.90
30250;DHT22;17064;47.974;13.826;2023-10-08T17:29:53;16.10;99.90
30250;DHT22;17064;47.974;13.826;2023-10-08T17:34:54;16.10;99.90
30250;DHT22;17064;47.974;13.826;2023-10-08T17:39:55;16.10;99.90
30250;DHT22;17064;47.974;13.826;2023-10-08T17:44:58;16.10;99.90
30250;DHT22;17064;47.974;13.826;2023-10-08T17:50:00;16.10;99.90
30250;DHT22;17064;47.974;13.826;2023-10-08T17:55:02;16.00;99.90
30250;DHT22;17064;47.974;13.826;2023-10-08T18:00:08;16.00;99.90
30250;DHT22;17064;47.974;13.826;2023-10-08T18:05:11;16.00;99.90
30250;DHT22;17064;47.974;13.826;2023-10-08T18:10:22;16.00;99.90
30250;DHT22;17064;47.974;13.826;2023-10-08T18:15:24;15.90;99.90
30250;DHT22;17064;47.974;13.826;2023-10-08T18:20:27;15.90;99.90
30250;DHT22;17064;47.974;13.826;2023-10-08T18:25:36;15.90;99.90
30250;DHT22;17064;47.974;13.826;2023-10-08T18:30:37;15.90;99.90
30250;DHT22;17064;47.974;13.826;2023-10-08T18:35:38;15.80;99.90
30250;DHT22;17064;47.974;13.826;2023-10-08T18:40:40;15.90;99.90
30250;DHT22;17064;47.974;13.826;2023-10-08T18:45:43;15.90;99.90
30250;DHT22;17064;47.974;13.826;2023-10-08T18:50:44;15.90;99.90
30250;DHT22;17064;47.974;13.826;2023-10-08T18:55:46;15.90;99.90
30250;DHT22;17064;47.974;13.826;2023-10-08T19:00:47;15.90;99.90
30250;DHT22;17064;47.974;13.826;2023-10-08T19:05:49;15.80;99.90
30250;DHT22;17064;47.974;13.826;2023-10-08T19:10:51;15.80;99.90
30250;DHT22;17064;47.974;13.826;2023-10-08T19:15:53;15.80;99.90
30250;DHT22;17064;47.974;13.826;2023-10-08T19:20:56;15.70;99.90
30250;DHT22;17064;47.974;13.826;2023-10-08T19:25:59;15.70;99.90
30250;DHT22;17064;47.974;13.826;2023-10-08T19:31:01;15.70;99.90
30250;DHT22;17064;47.974;13.826;2023-10-08T19:36:06;15.60;99.90
30250;DHT22;17064;47.974;13.826;2023-10-08T19:41:14;15.60;99.90
30250;DHT22;17064;47.974;13.826;2023-10-08T19:46:17;15.50;99.90
30250;DHT22;17064;47.974;13.826;2023-10-08T19:51:23;15.50;99.90
30250;DHT22;17064;47.974;13.826;2023-10-08T19:56:26;15.40;99.90
30250;DHT22;17064;47.974;13.826;2023-10-08T20:01:28;15.40;99.90
30250;DHT22;17064;47.974;13.826;2023-10-08T20:06:29;15.30;99.90
30250;DHT22;17064;47.974;13.826;2023-10-08T20:11:32;15.20;99.90
30250;DHT22;17064;47.974;13.826;2023-10-08T20:16:33;15.10;99.90
30250;DHT22;17064;47.974;13.826;2023-10-08T20:21:34;15.00;99.90
30250;DHT22;17064;47.974;13.826;2023-10-08T20:26:36;14.90;99.90
30250;DHT22;17064;47.974;13.826;2023-10-08T20:31:38;14.80;99.90
30250;DHT22;17064;47.974;13.826;2023-10-08T20:36:40;14.80;99.90
30250;DHT22;17064;47.974;13.826;2023-10-08T20:41:41;14.70;99.90
30250;DHT22;17064;47.974;13.826;2023-10-08T20:46:43;14.60;99.90
30250;DHT22;17064;47.974;13.826;2023-10-08T20:51:43;14.50;99.90
30250;DHT22;17064;47.974;13.826;2023-10-08T20:56:44;14.50;99.90
30250;DHT22;17064;47.974;13.826;2023-10-08T21:01:45;14.40;99.90
30250;DHT22;17064;47.974;13.826;2023-10-08T21:06:47;14.40;99.90
30250;DHT22;17064;47.974;13.826;2023-10-08T21:11:49;14.30;99.90
30250;DHT22;17064;47.974;13.826;2023-10-08T21:16:51;14.30;99.90
30250;DHT22;17064;47.974;13.826;2023-10-08T21:21:55;14.30;99.90
30250;DHT22;17064;47.974;13.826;2023-10-08T21:26:56;14.20;99.90
30250;DHT22;17064;47.974;13.826;2023-10-08T21:31:56;14.20;99.90
30250;DHT22;17064;47.974;13.826;2023-10-08T21:36:57;14.10;99.90
30250;DHT22;17064;47.974;13.826;2023-10-08T21:41:58;14.00;99.90
30250;DHT22;17064;47.974;13.826;2023-10-08T21:46:59;14.00;99.90
30250;DHT22;17064;47.974;13.826;2023-10-08T21:52:00;14.00;99.90
30250;DHT22;17064;47.974;13.826;2023-10-08T21:57:01;13.90;99.90
30250;DHT22;17064;47.974;13.826;2023-10-08T22:02:04;13.80;99.90
30250;DHT22;17064;47.974;13.826;2023-10-08T22:07:06;13.80;99.90
30250;DHT22;17064;47.974;13.826;2023-10-08T22:12:08;13.60;99.90
30250;DHT22;17064;47.974;13.826;2023-10-08T22:17:11;13.50;99.90
30250;DHT22;17064;47.974;13.826;2023-10-08T22:22:13;13.40;99.90
30250;DHT22;17064;47.974;13.826;2023-10-08T22:27:18;13.30;99.90
30250;DHT22;17064;47.974;13.826;2023-10-08T22:32:34;13.10;99.90
30250;DHT22;17064;47.974;13.826;2023-10-08T22:37:34;13.00;99.90
30250;DHT22;17064;47.974;13.826;2023-10-08T22:42:53;12.80;99.90
30250;DHT22;17064;47.974;13.826;2023-10-08T22:47:54;12.70;99.90
30250;DHT22;17064;47.974;13.826;2023-10-08T22:53:00;12.60;99.90
30250;DHT22;17064;47.974;13.826;2023-10-08T22:58:02;12.50;99.90
30250;DHT22;17064;47.974;13.826;2023-10-08T23:03:08;12.40;99.90
30250;DHT22;17064;47.974;13.826;2023-10-08T23:08:11;12.40;99.90
30250;DHT22;17064;47.974;13.826;2023-10-08T23:13:13;12.40;99.90
30250;DHT22;17064;47.974;13.826;2023-10-08T23:18:16;12.30;99.90
30250;DHT22;17064;47.974;13.826;2023-10-08T23:23:23;12.20;99.90
30250;DHT22;17064;47.974;13.826;2023-10-08T23:28:26;12.10;99.90
30250;DHT22;17064;47.974;13.826;2023-10-08T23:33:28;12.10;99.90
30250;DHT22;17064;47.974;13.826;2023-10-08T23:38:35;12.10;99.90
30250;DHT22;17064;47.974;13.826;2023-10-08T23:43:38;12.10;99.90
30250;DHT22;17064;47.974;13.826;2023-10-08T23:48:41;12.10;99.90
30250;DHT22;17064;47.974;13.826;2023-10-08T23:53:54;12.00;99.90
30250;DHT22;17064;47.974;13.826;2023-10-08T23:58:55;12.10;99.90
